Flight Track Log - Related Links

Times and Time Zones

All times are in EST time to prevent confusion due to time zone crossing. See the EJA922 flight status page for this flight to view local times or setup timezone preferences in your user account.

Time Position Orientation Groundspeed Altitude Reporting Facility
EST Latitude Longitude Course Direction KTS MPH feet Rate Location/Type
Thu 07:21:24 AM 36.2603 -80.0047 52° Northeast 352 405 12,000  Level Washington Center
Thu 07:22:25 AM 36.2878 -79.8825 74° East 374 430 12,200 1,210 Climbing Washington Center
Thu 07:23:23 AM 36.3156 -79.7500 75° East 410 472 14,400 2,370 Climbing Washington Center
Thu 07:24:00 AM 36.6216 -79.6384 56° Northeast  Level Estimated
Thu 07:24:24 AM 36.3456 -79.6019 76° East 428 493 16,900  Level Washington Center
Thu 07:25:00 AM 36.7026 -79.5404 63° Northeast  Level Estimated
Thu 07:25:24 AM 36.3792 -79.4694 72° East 423 487 18,400  Level Washington Center
Thu 07:26:00 AM 36.7836 -79.4422 52° Northeast  Level Estimated
Thu 07:26:22 AM 36.4039 -79.3444 76° East 428 493 20,200  Level Washington Center
Thu 07:27:23 AM 36.4728 -79.2081 58° Northeast 415 478 22,100 1,587 Climbing Washington Center
Thu 07:28:23 AM 36.5542 -79.0697 54° Northeast 436 502 23,400 1,636 Climbing Washington Center
Thu 07:29:24 AM 36.6308 -78.9386 54° Northeast 450 518 25,400 1,934 Climbing Washington Center
Thu 07:30:24 AM 36.6969 -78.8119 57° Northeast 473 544 27,300 1,884 Climbing Washington Center
Thu 07:31:25 AM 36.7692 -78.6825 55° Northeast 473 544 29,200 1,765 Climbing Washington Center
Thu 07:32:23 AM 36.8458 -78.5428 56° Northeast 478 550 30,800 1,729 Climbing Washington Center
Thu 07:33:23 AM 36.9222 -78.4003 56° Northeast 478 550 32,600 1,750 Climbing Washington Center
Thu 07:34:23 AM 37.0136 -78.2397 54° Northeast 502 578 34,300 1,190 Climbing Washington Center
Thu 07:35:24 AM 37.0894 -78.1097 54° Northeast 510 587 35,000 344 Climbing Washington Center
Thu 07:36:25 AM 37.1739 -77.9586 55° Northeast 510 587 35,000  Level Washington Center
Thu 07:37:25 AM 37.2928 -77.8500 36° Northeast 508 585 35,000  Level Washington Center
Thu 07:38:23 AM 37.4217 -77.7492 32° Northeast 524 603 35,000  Level Washington Center
Thu 07:39:24 AM 37.5486 -77.6533 31° Northeast 529 609 35,000  Level Washington Center
Thu 07:40:24 AM 37.6733 -77.5569 31° Northeast 529 609 35,000  Level Washington Center
Thu 07:41:25 AM 37.8000 -77.4578 32° Northeast 529 609 35,000  Level Washington Center
Thu 07:42:25 AM 37.9289 -77.3583 31° Northeast 529 609 35,000 -203 Level Washington Center
Thu 07:43:23 AM 38.0531 -77.2636 31° Northeast 529 609 34,600 -807 Descending Washington Center
Thu 07:44:24 AM 38.1775 -77.1633 32° Northeast 524 603 33,400 -1,082 Descending Washington Center
Thu 07:45:25 AM 38.3144 -77.0550 32° Northeast 529 609 32,400 -1,160 Descending Washington Center
Thu 07:46:23 AM 38.4281 -76.9672 31° Northeast 529 609 31,100 -700 Descending Washington Center
Thu 07:47:25 AM 38.5542 -76.8658 32° Northeast 529 609 31,000 -49 Descending Washington Center
Thu 07:48:25 AM 38.6783 -76.7644 33° Northeast 529 609 31,000  Level Washington Center
Thu 07:49:23 AM 38.7942 -76.6436 39° Northeast 535 616 31,000 -407 Level Washington Center
Thu 07:50:23 AM 38.9056 -76.5172 41° Northeast 535 616 30,200 -1,736 Descending Washington Center
Thu 07:51:24 AM 39.0128 -76.3931 42° Northeast 528 608 27,500 -2,656 Descending Washington Center
Thu 07:52:25 AM 39.1136 -76.2739 43° Northeast 510 587 24,800 -1,736 Descending Washington Center
Thu 07:53:25 AM 39.2247 -76.1461 42° Northeast 487 560 24,000 -410 Descending Washington Center
Thu 07:54:22 AM 39.3272 -76.0397 39° Northeast 482 555 24,000 -1,038 Level Washington Center
Thu 07:56:01 AM 39.5000 -75.8667 38° Northeast 466 536 21,300 -2,255 Descending Philadelphia TRACON
Thu 07:57:07 AM 39.6167 -75.7667 33° Northeast 449 517 17,800 -3,050 Descending Philadelphia TRACON
Thu 07:58:01 AM 39.7000 -75.6833 38° Northeast 433 498 15,200 -2,526 Descending Philadelphia TRACON
Thu 07:59:01 AM 39.8000 -75.6000 33° Northeast 399 459 13,000 -1,100 Descending Philadelphia TRACON
Thu 08:00:01 AM 39.8833 -75.5167 37° Northeast 417 480 13,000  Level Philadelphia TRACON
Thu 08:01:02 AM 39.9833 -75.4333 33° Northeast 415 478 13,000  Level Philadelphia TRACON
Thu 08:01:56 AM 40.0667 -75.3500 37° Northeast 411 473 13,000  Level Philadelphia TRACON
Thu 08:02:55 AM 40.1500 -75.2667 37° Northeast 412 474 13,000 -905 Level Philadelphia TRACON
Thu 08:04:02 AM 40.2500 -75.1833 32° Northeast 306 352 11,100 -1,718 Descending Philadelphia TRACON
Thu 08:06:21 AM 40.4000 -75.0167 40° Northeast 299 344 7,100 -1,417 Descending New York TRACON
Thu 08:07:21 AM 40.4500 -74.9333 52° Northeast 297 342 6,400 -789 Descending New York TRACON
Thu 08:08:15 AM 40.5000 -74.8667 45° Northeast 294 338 5,600 -947 Descending New York TRACON
Thu 08:09:15 AM 40.5500 -74.7833 52° Northeast 284 327 4,600 -800 Descending New York TRACON
Thu 08:10:15 AM 40.6000 -74.7167 45° Northeast 276 318 4,000 -316 Descending New York TRACON
Thu 08:11:09 AM 40.6500 -74.6500 45° Northeast 274 315 4,000 -400 Level New York TRACON
Thu 08:12:15 AM 40.7167 -74.5667 43° Northeast 274 315 3,200 -500 Descending New York TRACON
Thu 08:13:09 AM 40.7500 -74.5000 57° Northeast 272 313 3,000 -105 Descending New York TRACON
Thu 08:14:09 AM 40.8167 -74.4333 37° Northeast 272 313 3,000  Level New York TRACON
Thu 08:15:09 AM 40.8667 -74.3667 45° Northeast 265 305 3,000  Level New York TRACON
Thu 08:16:09 AM 40.9000 -74.2833 62° Northeast 266 306 3,000  Level New York TRACON
Thu 08:17:09 AM 40.9167 -74.1833 78° East 291 335 3,000 -300 Level New York TRACON
Thu 08:18:09 AM 40.9333 -74.1000 75° East 242 278 2,400 -800 Descending New York TRACON
Thu 08:19:09 AM 40.9167 -74.0333 108° East 207 238 1,400 -800 Descending New York TRACON
Thu 08:20:09 AM 40.8833 -74.0167 159° South 131 151 800 -600 Descending New York TRACON
Thu 08:22:00 AM 40.8500 -74.0500 191° South  Level FlightAware Approximate
Thu 08:29:00 AM 40.8501 -74.0608 191° South  Level Estimated

Login

Don't have an account? Register now (free) for customized features, flight alerts, and more!